sensor_id;sensor_type;location;lat;lon;timestamp;pressure;altitude;pressure_sealevel;temperature;humidity
76166;BME280;65085;46.718;20.136;2024-01-30T00:01:38;103145.19;;;-1.40;100.00
76166;BME280;65085;46.718;20.136;2024-01-30T00:04:41;103150.53;;;-1.40;100.00
76166;BME280;65085;46.718;20.136;2024-01-30T00:07:45;103158.31;;;-1.27;100.00
76166;BME280;65085;46.718;20.136;2024-01-30T00:10:50;103143.94;;;-1.37;100.00
76166;BME280;65085;46.718;20.136;2024-01-30T00:13:53;103160.97;;;-1.38;100.00
76166;BME280;65085;46.718;20.136;2024-01-30T00:16:57;103158.03;;;-1.48;100.00
76166;BME280;65085;46.718;20.136;2024-01-30T00:20:00;103161.31;;;-1.35;100.00
76166;BME280;65085;46.718;20.136;2024-01-30T00:23:04;103161.75;;;-1.38;100.00
76166;BME280;65085;46.718;20.136;2024-01-30T00:26:09;103164.75;;;-1.46;100.00
76166;BME280;65085;46.718;20.136;2024-01-30T00:29:12;103149.47;;;-1.50;100.00
76166;BME280;65085;46.718;20.136;2024-01-30T00:32:22;103151.75;;;-1.54;100.00
76166;BME280;65085;46.718;20.136;2024-01-30T00:35:26;103178.56;;;-1.49;100.00
76166;BME280;65085;46.718;20.136;2024-01-30T00:38:30;103166.84;;;-1.48;100.00
76166;BME280;65085;46.718;20.136;2024-01-30T00:41:34;103180.75;;;-1.46;100.00
76166;BME280;65085;46.718;20.136;2024-01-30T00:44:37;103177.97;;;-1.51;100.00
76166;BME280;65085;46.718;20.136;2024-01-30T00:47:41;103150.59;;;-1.69;100.00
76166;BME280;65085;46.718;20.136;2024-01-30T00:50:45;103150.91;;;-1.77;100.00
76166;BME280;65085;46.718;20.136;2024-01-30T00:53:48;103162.28;;;-1.70;100.00
76166;BME280;65085;46.718;20.136;2024-01-30T00:56:53;103140.34;;;-1.84;100.00
76166;BME280;65085;46.718;20.136;2024-01-30T00:59:57;103173.41;;;-1.62;100.00
76166;BME280;65085;46.718;20.136;2024-01-30T01:03:00;103127.47;;;-1.87;100.00
76166;BME280;65085;46.718;20.136;2024-01-30T01:06:04;103154.66;;;-1.67;100.00
76166;BME280;65085;46.718;20.136;2024-01-30T01:09:10;103174.13;;;-1.55;100.00
76166;BME280;65085;46.718;20.136;2024-01-30T01:12:14;103165.09;;;-1.54;100.00
76166;BME280;65085;46.718;20.136;2024-01-30T01:15:18;103123.31;;;-1.83;100.00
76166;BME280;65085;46.718;20.136;2024-01-30T01:18:22;103125.03;;;-1.88;100.00
76166;BME280;65085;46.718;20.136;2024-01-30T01:21:25;103152.88;;;-1.73;100.00
76166;BME280;65085;46.718;20.136;2024-01-30T01:24:29;103164.34;;;-1.72;100.00
76166;BME280;65085;46.718;20.136;2024-01-30T01:27:34;103169.00;;;-1.68;100.00
76166;BME280;65085;46.718;20.136;2024-01-30T01:30:41;103151.81;;;-1.83;100.00
76166;BME280;65085;46.718;20.136;2024-01-30T01:33:44;103166.44;;;-1.74;100.00
76166;BME280;65085;46.718;20.136;2024-01-30T01:36:48;103170.97;;;-1.75;100.00
76166;BME280;65085;46.718;20.136;2024-01-30T01:39:51;103170.34;;;-1.77;100.00
76166;BME280;65085;46.718;20.136;2024-01-30T01:42:56;103170.72;;;-1.73;100.00
76166;BME280;65085;46.718;20.136;2024-01-30T01:45:59;103164.00;;;-1.76;100.00
76166;BME280;65085;46.718;20.136;2024-01-30T01:49:05;103161.97;;;-1.92;100.00
76166;BME280;65085;46.718;20.136;2024-01-30T01:52:09;103176.13;;;-1.80;100.00
76166;BME280;65085;46.718;20.136;2024-01-30T01:55:13;103167.78;;;-1.83;100.00
76166;BME280;65085;46.718;20.136;2024-01-30T01:58:19;103164.91;;;-1.82;100.00
76166;BME280;65085;46.718;20.136;2024-01-30T02:01:25;103169.97;;;-1.80;100.00
76166;BME280;65085;46.718;20.136;2024-01-30T02:04:30;103168.72;;;-1.78;100.00
76166;BME280;65085;46.718;20.136;2024-01-30T02:07:33;103157.50;;;-1.80;100.00
76166;BME280;65085;46.718;20.136;2024-01-30T02:10:37;103154.00;;;-1.80;100.00
76166;BME280;65085;46.718;20.136;2024-01-30T02:13:42;103142.41;;;-1.86;100.00
76166;BME280;65085;46.718;20.136;2024-01-30T02:16:45;103161.19;;;-1.81;100.00
76166;BME280;65085;46.718;20.136;2024-01-30T02:19:48;103152.75;;;-1.78;100.00
76166;BME280;65085;46.718;20.136;2024-01-30T02:22:54;103142.28;;;-1.91;100.00
76166;BME280;65085;46.718;20.136;2024-01-30T02:25:58;103149.91;;;-1.94;100.00
76166;BME280;65085;46.718;20.136;2024-01-30T02:29:02;103163.34;;;-1.89;100.00
76166;BME280;65085;46.718;20.136;2024-01-30T02:32:06;103159.00;;;-1.84;100.00
76166;BME280;65085;46.718;20.136;2024-01-30T02:35:10;103142.47;;;-2.04;100.00
76166;BME280;65085;46.718;20.136;2024-01-30T02:38:15;103150.25;;;-2.02;100.00
76166;BME280;65085;46.718;20.136;2024-01-30T02:41:19;103156.19;;;-1.89;100.00
76166;BME280;65085;46.718;20.136;2024-01-30T02:44:22;103153.06;;;-1.86;100.00
76166;BME280;65085;46.718;20.136;2024-01-30T02:47:25;103154.56;;;-1.90;100.00
76166;BME280;65085;46.718;20.136;2024-01-30T02:50:28;103156.13;;;-2.00;100.00
76166;BME280;65085;46.718;20.136;2024-01-30T02:53:33;103140.25;;;-2.07;100.00
76166;BME280;65085;46.718;20.136;2024-01-30T02:56:36;103137.97;;;-2.03;100.00
76166;BME280;65085;46.718;20.136;2024-01-30T02:59:42;103156.28;;;-1.95;100.00
76166;BME280;65085;46.718;20.136;2024-01-30T03:02:46;103133.44;;;-2.03;100.00
76166;BME280;65085;46.718;20.136;2024-01-30T03:05:49;103144.81;;;-1.96;100.00
76166;BME280;65085;46.718;20.136;2024-01-30T03:08:54;103153.16;;;-1.92;100.00
76166;BME280;65085;46.718;20.136;2024-01-30T03:11:57;103158.84;;;-1.89;100.00
76166;BME280;65085;46.718;20.136;2024-01-30T03:15:00;103140.88;;;-1.93;100.00
76166;BME280;65085;46.718;20.136;2024-01-30T03:18:04;103141.22;;;-2.01;100.00
76166;BME280;65085;46.718;20.136;2024-01-30T03:21:07;103153.38;;;-1.94;100.00
76166;BME280;65085;46.718;20.136;2024-01-30T03:24:12;103156.97;;;-1.88;100.00
76166;BME280;65085;46.718;20.136;2024-01-30T03:27:15;103155.25;;;-1.94;100.00
76166;BME280;65085;46.718;20.136;2024-01-30T03:30:18;103152.22;;;-1.98;100.00
76166;BME280;65085;46.718;20.136;2024-01-30T03:33:22;103152.66;;;-2.01;100.00
76166;BME280;65085;46.718;20.136;2024-01-30T03:36:25;103151.03;;;-2.02;100.00
76166;BME280;65085;46.718;20.136;2024-01-30T03:39:30;103144.53;;;-2.06;100.00
76166;BME280;65085;46.718;20.136;2024-01-30T03:42:33;103152.28;;;-2.04;100.00
76166;BME280;65085;46.718;20.136;2024-01-30T03:45:36;103151.50;;;-2.05;100.00
76166;BME280;65085;46.718;20.136;2024-01-30T03:48:40;103155.41;;;-2.07;100.00
76166;BME280;65085;46.718;20.136;2024-01-30T03:51:43;103139.16;;;-2.17;100.00
76166;BME280;65085;46.718;20.136;2024-01-30T03:54:48;103129.00;;;-2.09;100.00
76166;BME280;65085;46.718;20.136;2024-01-30T03:57:51;103142.81;;;-2.00;100.00
76166;BME280;65085;46.718;20.136;2024-01-30T04:00:54;103149.94;;;-2.12;100.00
76166;BME280;65085;46.718;20.136;2024-01-30T04:03:58;103133.97;;;-2.12;100.00
76166;BME280;65085;46.718;20.136;2024-01-30T04:07:01;103144.50;;;-2.17;100.00
76166;BME280;65085;46.718;20.136;2024-01-30T04:10:07;103148.09;;;-2.12;100.00
76166;BME280;65085;46.718;20.136;2024-01-30T04:13:10;103143.09;;;-2.20;100.00
76166;BME280;65085;46.718;20.136;2024-01-30T04:16:19;103147.25;;;-2.24;100.00
76166;BME280;65085;46.718;20.136;2024-01-30T04:19:26;103151.53;;;-2.23;100.00
76166;BME280;65085;46.718;20.136;2024-01-30T04:22:29;103150.03;;;-2.19;100.00
76166;BME280;65085;46.718;20.136;2024-01-30T04:25:34;103148.19;;;-2.18;100.00
76166;BME280;65085;46.718;20.136;2024-01-30T04:28:37;103140.00;;;-2.35;100.00
76166;BME280;65085;46.718;20.136;2024-01-30T04:31:40;103139.50;;;-2.43;100.00
76166;BME280;65085;46.718;20.136;2024-01-30T04:34:43;103148.34;;;-2.31;100.00
76166;BME280;65085;46.718;20.136;2024-01-30T04:37:47;103144.91;;;-2.32;100.00
76166;BME280;65085;46.718;20.136;2024-01-30T04:40:51;103146.16;;;-2.34;100.00
76166;BME280;65085;46.718;20.136;2024-01-30T04:43:56;103149.59;;;-2.34;100.00
76166;BME280;65085;46.718;20.136;2024-01-30T04:46:59;103154.19;;;-2.23;100.00
76166;BME280;65085;46.718;20.136;2024-01-30T04:50:05;103158.53;;;-2.28;100.00
76166;BME280;65085;46.718;20.136;2024-01-30T04:53:09;103150.28;;;-2.38;100.00
76166;BME280;65085;46.718;20.136;2024-01-30T04:56:13;103164.09;;;-2.30;100.00
76166;BME280;65085;46.718;20.136;2024-01-30T04:59:16;103151.53;;;-2.41;100.00
76166;BME280;65085;46.718;20.136;2024-01-30T05:02:20;103162.56;;;-2.19;100.00
76166;BME280;65085;46.718;20.136;2024-01-30T05:05:23;103157.59;;;-2.16;100.00
76166;BME280;65085;46.718;20.136;2024-01-30T05:08:26;103159.94;;;-2.26;100.00
76166;BME280;65085;46.718;20.136;2024-01-30T05:11:31;103144.75;;;-2.37;100.00
76166;BME280;65085;46.718;20.136;2024-01-30T05:14:39;103152.19;;;-2.45;100.00
76166;BME280;65085;46.718;20.136;2024-01-30T05:17:42;103163.59;;;-2.56;100.00
76166;BME280;65085;46.718;20.136;2024-01-30T05:20:46;103170.03;;;-2.46;100.00
76166;BME280;65085;46.718;20.136;2024-01-30T05:23:49;103175.94;;;-2.44;100.00
76166;BME280;65085;46.718;20.136;2024-01-30T05:26:53;103176.38;;;-2.65;100.00
76166;BME280;65085;46.718;20.136;2024-01-30T05:29:57;103171.66;;;-2.45;100.00
76166;BME280;65085;46.718;20.136;2024-01-30T05:33:00;103170.53;;;-2.37;100.00
76166;BME280;65085;46.718;20.136;2024-01-30T05:36:04;103163.59;;;-2.38;100.00
76166;BME280;65085;46.718;20.136;2024-01-30T05:39:07;103166.25;;;-2.38;100.00
76166;BME280;65085;46.718;20.136;2024-01-30T05:42:12;103170.97;;;-2.22;100.00
76166;BME280;65085;46.718;20.136;2024-01-30T05:45:15;103166.91;;;-2.07;100.00
76166;BME280;65085;46.718;20.136;2024-01-30T05:48:19;103163.34;;;-2.19;100.00
76166;BME280;65085;46.718;20.136;2024-01-30T05:51:22;103176.94;;;-2.09;100.00
76166;BME280;65085;46.718;20.136;2024-01-30T05:54:26;103186.66;;;-1.85;100.00
76166;BME280;65085;46.718;20.136;2024-01-30T05:57:31;103199.75;;;-1.83;100.00
76166;BME280;65085;46.718;20.136;2024-01-30T06:00:34;103198.28;;;-1.79;100.00
76166;BME280;65085;46.718;20.136;2024-01-30T06:03:37;103193.47;;;-1.59;100.00
76166;BME280;65085;46.718;20.136;2024-01-30T06:06:41;103187.56;;;-1.61;100.00
76166;BME280;65085;46.718;20.136;2024-01-30T06:09:45;103202.88;;;-1.57;100.00
76166;BME280;65085;46.718;20.136;2024-01-30T06:12:52;103208.41;;;-1.58;100.00
76166;BME280;65085;46.718;20.136;2024-01-30T06:15:56;103201.75;;;-1.79;100.00
76166;BME280;65085;46.718;20.136;2024-01-30T06:19:08;103204.72;;;-1.87;100.00
76166;BME280;65085;46.718;20.136;2024-01-30T06:22:12;103167.19;;;-2.15;100.00
76166;BME280;65085;46.718;20.136;2024-01-30T06:25:15;103213.38;;;-1.91;100.00
76166;BME280;65085;46.718;20.136;2024-01-30T06:28:21;103198.66;;;-1.94;100.00
76166;BME280;65085;46.718;20.136;2024-01-30T06:31:28;103193.22;;;-1.99;100.00
76166;BME280;65085;46.718;20.136;2024-01-30T06:34:42;103206.00;;;-2.07;100.00
76166;BME280;65085;46.718;20.136;2024-01-30T06:37:47;103221.84;;;-1.94;100.00
76166;BME280;65085;46.718;20.136;2024-01-30T06:40:50;103205.28;;;-1.85;100.00
76166;BME280;65085;46.718;20.136;2024-01-30T06:43:56;103228.91;;;-1.70;100.00
76166;BME280;65085;46.718;20.136;2024-01-30T06:46:59;103218.44;;;-1.72;100.00
76166;BME280;65085;46.718;20.136;2024-01-30T06:50:02;103224.00;;;-1.73;100.00
76166;BME280;65085;46.718;20.136;2024-01-30T06:53:06;103213.06;;;-1.54;100.00
76166;BME280;65085;46.718;20.136;2024-01-30T06:56:18;103212.28;;;-1.54;100.00
76166;BME280;65085;46.718;20.136;2024-01-30T06:59:25;103210.66;;;-1.55;100.00
76166;BME280;65085;46.718;20.136;2024-01-30T07:02:29;103215.00;;;-1.31;100.00
76166;BME280;65085;46.718;20.136;2024-01-30T07:05:33;103214.28;;;-1.38;100.00
76166;BME280;65085;46.718;20.136;2024-01-30T07:08:36;103223.25;;;-1.21;100.00
76166;BME280;65085;46.718;20.136;2024-01-30T07:11:42;103221.38;;;-1.21;100.00
76166;BME280;65085;46.718;20.136;2024-01-30T07:14:47;103210.22;;;-1.41;100.00
76166;BME280;65085;46.718;20.136;2024-01-30T07:17:51;103229.34;;;-1.32;100.00
76166;BME280;65085;46.718;20.136;2024-01-30T07:20:56;103239.41;;;-1.46;100.00
76166;BME280;65085;46.718;20.136;2024-01-30T07:23:59;103231.34;;;-1.28;100.00
76166;BME280;65085;46.718;20.136;2024-01-30T07:27:03;103241.69;;;-1.08;100.00
76166;BME280;65085;46.718;20.136;2024-01-30T07:30:08;103244.75;;;-1.34;100.00
76166;BME280;65085;46.718;20.136;2024-01-30T07:33:12;103252.09;;;-1.18;100.00
76166;BME280;65085;46.718;20.136;2024-01-30T07:36:15;103250.19;;;-1.00;100.00
76166;BME280;65085;46.718;20.136;2024-01-30T07:39:18;103248.00;;;-0.91;100.00
76166;BME280;65085;46.718;20.136;2024-01-30T07:42:21;103254.81;;;-0.95;100.00
76166;BME280;65085;46.718;20.136;2024-01-30T07:45:29;103258.59;;;-0.62;100.00
76166;BME280;65085;46.718;20.136;2024-01-30T07:48:37;103257.31;;;-0.59;100.00
76166;BME280;65085;46.718;20.136;2024-01-30T07:51:45;103255.66;;;-0.60;100.00
76166;BME280;65085;46.718;20.136;2024-01-30T07:54:52;103252.63;;;-0.52;100.00
76166;BME280;65085;46.718;20.136;2024-01-30T07:57:56;103260.41;;;-0.16;100.00
76166;BME280;65085;46.718;20.136;2024-01-30T08:01:04;103242.63;;;-0.22;100.00
76166;BME280;65085;46.718;20.136;2024-01-30T08:04:07;103253.31;;;-0.11;100.00
76166;BME280;65085;46.718;20.136;2024-01-30T08:07:19;103256.56;;;-0.20;100.00
76166;BME280;65085;46.718;20.136;2024-01-30T08:10:24;103249.16;;;-0.18;100.00
76166;BME280;65085;46.718;20.136;2024-01-30T08:13:28;103240.72;;;0.12;100.00
76166;BME280;65085;46.718;20.136;2024-01-30T08:16:35;103246.28;;;0.11;100.00
76166;BME280;65085;46.718;20.136;2024-01-30T08:19:38;103253.19;;;0.35;100.00
76166;BME280;65085;46.718;20.136;2024-01-30T08:22:41;103247.88;;;0.23;100.00
76166;BME280;65085;46.718;20.136;2024-01-30T08:25:44;103241.47;;;0.24;100.00
76166;BME280;65085;46.718;20.136;2024-01-30T08:28:48;103240.19;;;0.27;100.00
76166;BME280;65085;46.718;20.136;2024-01-30T08:31:53;103240.13;;;0.38;100.00
76166;BME280;65085;46.718;20.136;2024-01-30T08:34:59;103252.59;;;0.61;100.00
76166;BME280;65085;46.718;20.136;2024-01-30T08:38:02;103249.53;;;0.69;100.00
76166;BME280;65085;46.718;20.136;2024-01-30T08:41:09;103237.88;;;0.91;100.00
76166;BME280;65085;46.718;20.136;2024-01-30T08:44:12;103239.09;;;0.84;100.00
76166;BME280;65085;46.718;20.136;2024-01-30T08:47:17;103239.91;;;1.17;100.00
76166;BME280;65085;46.718;20.136;2024-01-30T08:50:21;103247.47;;;1.04;100.00
76166;BME280;65085;46.718;20.136;2024-01-30T08:53:25;103249.00;;;1.00;100.00
76166;BME280;65085;46.718;20.136;2024-01-30T08:56:30;103245.94;;;1.62;100.00
76166;BME280;65085;46.718;20.136;2024-01-30T08:59:33;103253.00;;;1.90;100.00
76166;BME280;65085;46.718;20.136;2024-01-30T09:02:38;103246.78;;;1.46;100.00
76166;BME280;65085;46.718;20.136;2024-01-30T09:05:41;103234.81;;;2.13;100.00
76166;BME280;65085;46.718;20.136;2024-01-30T09:08:45;103238.66;;;2.75;100.00
76166;BME280;65085;46.718;20.136;2024-01-30T09:11:48;103231.00;;;3.20;99.20
76166;BME280;65085;46.718;20.136;2024-01-30T09:14:59;103232.72;;;3.00;100.00
76166;BME280;65085;46.718;20.136;2024-01-30T09:18:22;103221.00;;;2.79;100.00
76166;BME280;65085;46.718;20.136;2024-01-30T09:21:29;103215.59;;;3.11;100.00
76166;BME280;65085;46.718;20.136;2024-01-30T09:24:57;103251.09;;;3.54;95.24
76166;BME280;65085;46.718;20.136;2024-01-30T09:28:01;103241.63;;;3.41;95.62
76166;BME280;65085;46.718;20.136;2024-01-30T09:31:09;103241.81;;;4.38;92.90
76166;BME280;65085;46.718;20.136;2024-01-30T09:34:14;103229.69;;;4.25;93.78
76166;BME280;65085;46.718;20.136;2024-01-30T09:37:34;103183.16;;;4.45;90.31
76166;BME280;65085;46.718;20.136;2024-01-30T09:41:10;103183.19;;;4.60;87.93
76166;BME280;65085;46.718;20.136;2024-01-30T09:48:08;103210.41;;;6.55;82.19
76166;BME280;65085;46.718;20.136;2024-01-30T09:51:43;103180.50;;;6.80;81.59
76166;BME280;65085;46.718;20.136;2024-01-30T09:54:49;103183.94;;;7.42;76.92
76166;BME280;65085;46.718;20.136;2024-01-30T09:58:34;103220.72;;;8.88;70.24
76166;BME280;65085;46.718;20.136;2024-01-30T10:01:46;103184.03;;;8.03;72.42
76166;BME280;65085;46.718;20.136;2024-01-30T10:05:21;103207.28;;;8.04;73.16
76166;BME280;65085;46.718;20.136;2024-01-30T10:09:15;103193.25;;;8.02;76.33
76166;BME280;65085;46.718;20.136;2024-01-30T10:12:25;103163.78;;;8.56;72.78
76166;BME280;65085;46.718;20.136;2024-01-30T10:15:53;103155.56;;;8.42;71.19
76166;BME280;65085;46.718;20.136;2024-01-30T10:18:56;103180.13;;;8.83;72.41
76166;BME280;65085;46.718;20.136;2024-01-30T10:22:24;103166.47;;;9.20;69.35
76166;BME280;65085;46.718;20.136;2024-01-30T10:25:48;103187.91;;;8.39;72.12
76166;BME280;65085;46.718;20.136;2024-01-30T10:28:59;103174.84;;;9.50;68.83
76166;BME280;65085;46.718;20.136;2024-01-30T10:32:08;103195.31;;;10.24;64.76
76166;BME280;65085;46.718;20.136;2024-01-30T10:35:46;103175.78;;;10.79;60.78
76166;BME280;65085;46.718;20.136;2024-01-30T10:42:45;103193.63;;;10.93;58.60
76166;BME280;65085;46.718;20.136;2024-01-30T10:45:49;103195.00;;;10.82;57.46
76166;BME280;65085;46.718;20.136;2024-01-30T10:48:57;103185.78;;;10.70;57.51
76166;BME280;65085;46.718;20.136;2024-01-30T10:52:16;103177.44;;;10.66;56.61
76166;BME280;65085;46.718;20.136;2024-01-30T10:55:53;103176.59;;;10.57;55.86
76166;BME280;65085;46.718;20.136;2024-01-30T11:00:14;103180.44;;;10.78;56.38
76166;BME280;65085;46.718;20.136;2024-01-30T11:08:45;103132.38;;;10.74;55.22
76166;BME280;65085;46.718;20.136;2024-01-30T11:12:13;103169.47;;;10.92;55.13
76166;BME280;65085;46.718;20.136;2024-01-30T11:15:20;103164.59;;;10.80;55.97
76166;BME280;65085;46.718;20.136;2024-01-30T11:19:23;103145.66;;;10.97;54.86
76166;BME280;65085;46.718;20.136;2024-01-30T11:23:40;103144.78;;;9.60;58.45
76166;BME280;65085;46.718;20.136;2024-01-30T11:26:44;103167.44;;;10.75;56.76
76166;BME280;65085;46.718;20.136;2024-01-30T11:29:50;103159.72;;;10.91;56.13
76166;BME280;65085;46.718;20.136;2024-01-30T11:33:03;103142.81;;;11.80;54.03
76166;BME280;65085;46.718;20.136;2024-01-30T11:36:40;103142.06;;;12.48;51.34
76166;BME280;65085;46.718;20.136;2024-01-30T11:40:14;103140.06;;;12.91;51.24
76166;BME280;65085;46.718;20.136;2024-01-30T11:44:13;103091.06;;;13.69;47.21
76166;BME280;65085;46.718;20.136;2024-01-30T11:47:42;103133.50;;;13.96;47.99
76166;BME280;65085;46.718;20.136;2024-01-30T11:51:37;103079.47;;;14.66;42.86
76166;BME280;65085;46.718;20.136;2024-01-30T11:55:49;103102.63;;;15.49;43.28
76166;BME280;65085;46.718;20.136;2024-01-30T11:58:55;103110.72;;;15.45;44.00
76166;BME280;65085;46.718;20.136;2024-01-30T12:02:08;103107.00;;;16.01;41.33
76166;BME280;65085;46.718;20.136;2024-01-30T12:05:31;103059.94;;;15.99;40.03
76166;BME280;65085;46.718;20.136;2024-01-30T12:09:30;103057.59;;;16.99;36.84
76166;BME280;65085;46.718;20.136;2024-01-30T12:13:14;103081.56;;;15.89;38.19
76166;BME280;65085;46.718;20.136;2024-01-30T12:16:29;103066.97;;;16.67;37.46
76166;BME280;65085;46.718;20.136;2024-01-30T12:19:35;103075.56;;;16.11;37.35
76166;BME280;65085;46.718;20.136;2024-01-30T12:22:40;103079.94;;;16.00;38.64
76166;BME280;65085;46.718;20.136;2024-01-30T12:25:52;103074.88;;;15.02;40.72
76166;BME280;65085;46.718;20.136;2024-01-30T12:28:58;103074.56;;;15.52;39.49
76166;BME280;65085;46.718;20.136;2024-01-30T12:32:04;103050.25;;;15.14;40.18
76166;BME280;65085;46.718;20.136;2024-01-30T12:35:15;103052.06;;;14.98;38.66
76166;BME280;65085;46.718;20.136;2024-01-30T12:38:22;103027.28;;;14.83;39.58
76166;BME280;65085;46.718;20.136;2024-01-30T12:41:32;103014.84;;;13.76;40.15
76166;BME280;65085;46.718;20.136;2024-01-30T12:44:36;103027.91;;;13.50;41.00
76166;BME280;65085;46.718;20.136;2024-01-30T12:47:46;103025.19;;;13.50;40.13
76166;BME280;65085;46.718;20.136;2024-01-30T12:50:55;103042.50;;;13.54;41.23
76166;BME280;65085;46.718;20.136;2024-01-30T12:53:58;103049.19;;;13.36;41.52
76166;BME280;65085;46.718;20.136;2024-01-30T12:57:08;103050.88;;;12.83;43.37
76166;BME280;65085;46.718;20.136;2024-01-30T13:00:11;103041.53;;;12.29;44.13
76166;BME280;65085;46.718;20.136;2024-01-30T13:03:15;103045.03;;;13.59;41.36
76166;BME280;65085;46.718;20.136;2024-01-30T13:06:19;103044.19;;;13.88;41.44
76166;BME280;65085;46.718;20.136;2024-01-30T13:09:23;103052.09;;;14.01;40.05
76166;BME280;65085;46.718;20.136;2024-01-30T13:12:28;103051.44;;;12.42;43.33
76166;BME280;65085;46.718;20.136;2024-01-30T13:15:32;103039.53;;;11.28;46.29
76166;BME280;65085;46.718;20.136;2024-01-30T13:18:37;103035.53;;;10.56;48.49
76166;BME280;65085;46.718;20.136;2024-01-30T13:21:41;103047.31;;;10.21;50.65
76166;BME280;65085;46.718;20.136;2024-01-30T13:24:47;103045.28;;;9.91;50.82
76166;BME280;65085;46.718;20.136;2024-01-30T13:27:52;102985.19;;;9.49;51.52
76166;BME280;65085;46.718;20.136;2024-01-30T13:31:02;102996.63;;;8.97;52.72
76166;BME280;65085;46.718;20.136;2024-01-30T13:34:07;102989.31;;;9.11;52.97
76166;BME280;65085;46.718;20.136;2024-01-30T13:37:11;103031.91;;;9.95;52.99
76166;BME280;65085;46.718;20.136;2024-01-30T13:40:15;103021.75;;;10.22;50.52
76166;BME280;65085;46.718;20.136;2024-01-30T13:43:21;103017.19;;;10.09;51.17
76166;BME280;65085;46.718;20.136;2024-01-30T13:46:26;103003.28;;;10.33;50.44
76166;BME280;65085;46.718;20.136;2024-01-30T13:49:29;103010.31;;;10.64;50.63
76166;BME280;65085;46.718;20.136;2024-01-30T13:56:03;103005.34;;;11.61;46.30
76166;BME280;65085;46.718;20.136;2024-01-30T13:59:09;103005.84;;;11.80;46.00
76166;BME280;65085;46.718;20.136;2024-01-30T14:02:12;103005.53;;;11.98;45.59
76166;BME280;65085;46.718;20.136;2024-01-30T14:05:18;103000.06;;;11.98;46.32
76166;BME280;65085;46.718;20.136;2024-01-30T14:08:24;103007.41;;;12.15;45.77
76166;BME280;65085;46.718;20.136;2024-01-30T14:11:29;103008.94;;;12.96;43.36
76166;BME280;65085;46.718;20.136;2024-01-30T14:14:35;102988.44;;;12.44;43.92
76166;BME280;65085;46.718;20.136;2024-01-30T14:17:39;102967.16;;;12.20;44.32
76166;BME280;65085;46.718;20.136;2024-01-30T14:20:42;102973.13;;;11.88;45.45
76166;BME280;65085;46.718;20.136;2024-01-30T14:23:45;103001.97;;;11.72;46.28
76166;BME280;65085;46.718;20.136;2024-01-30T14:26:50;102996.09;;;11.06;47.90
76166;BME280;65085;46.718;20.136;2024-01-30T14:29:55;102997.16;;;11.52;47.34
76166;BME280;65085;46.718;20.136;2024-01-30T14:33:12;103000.88;;;11.65;46.56
76166;BME280;65085;46.718;20.136;2024-01-30T14:36:21;102959.66;;;11.24;47.22
76166;BME280;65085;46.718;20.136;2024-01-30T14:39:27;102989.56;;;10.68;49.00
76166;BME280;65085;46.718;20.136;2024-01-30T14:42:30;102986.06;;;10.37;49.90
76166;BME280;65085;46.718;20.136;2024-01-30T14:45:40;102989.53;;;10.29;49.96
76166;BME280;65085;46.718;20.136;2024-01-30T14:48:45;102979.22;;;10.48;49.07
76166;BME280;65085;46.718;20.136;2024-01-30T14:51:49;102991.44;;;10.59;48.99
76166;BME280;65085;46.718;20.136;2024-01-30T14:54:52;102987.50;;;10.13;50.91
76166;BME280;65085;46.718;20.136;2024-01-30T14:57:55;102990.53;;;9.98;50.51
76166;BME280;65085;46.718;20.136;2024-01-30T15:01:03;102991.41;;;9.14;53.00
76166;BME280;65085;46.718;20.136;2024-01-30T15:04:06;102998.63;;;8.78;54.58
76166;BME280;65085;46.718;20.136;2024-01-30T15:07:12;102997.56;;;8.33;55.79
76166;BME280;65085;46.718;20.136;2024-01-30T15:10:27;102995.44;;;7.98;57.26
76166;BME280;65085;46.718;20.136;2024-01-30T15:13:30;103000.63;;;7.58;58.45
76166;BME280;65085;46.718;20.136;2024-01-30T15:16:35;103006.66;;;7.13;61.22
76166;BME280;65085;46.718;20.136;2024-01-30T15:19:39;103000.53;;;7.07;60.96
76166;BME280;65085;46.718;20.136;2024-01-30T15:22:42;102982.44;;;6.85;61.59
76166;BME280;65085;46.718;20.136;2024-01-30T15:25:47;102989.28;;;6.49;62.78
76166;BME280;65085;46.718;20.136;2024-01-30T15:28:51;103002.69;;;6.30;64.42
76166;BME280;65085;46.718;20.136;2024-01-30T15:31:56;103004.69;;;6.20;64.84
76166;BME280;65085;46.718;20.136;2024-01-30T15:35:00;102996.06;;;6.18;65.31
76166;BME280;65085;46.718;20.136;2024-01-30T15:38:07;103001.31;;;6.04;65.86
76166;BME280;65085;46.718;20.136;2024-01-30T15:41:11;103000.94;;;5.77;67.12
76166;BME280;65085;46.718;20.136;2024-01-30T15:44:14;102995.91;;;5.61;67.80
76166;BME280;65085;46.718;20.136;2024-01-30T15:47:19;102994.81;;;5.62;67.64
76166;BME280;65085;46.718;20.136;2024-01-30T15:50:23;102992.53;;;5.45;68.34
76166;BME280;65085;46.718;20.136;2024-01-30T15:53:26;102990.22;;;5.24;68.79
76166;BME280;65085;46.718;20.136;2024-01-30T15:56:30;102994.03;;;5.13;69.48
76166;BME280;65085;46.718;20.136;2024-01-30T15:59:33;102995.47;;;4.85;70.28
76166;BME280;65085;46.718;20.136;2024-01-30T16:02:38;103006.34;;;4.55;72.58
76166;BME280;65085;46.718;20.136;2024-01-30T16:05:42;103007.44;;;4.19;74.86
76166;BME280;65085;46.718;20.136;2024-01-30T16:08:46;103001.00;;;4.00;75.21
76166;BME280;65085;46.718;20.136;2024-01-30T16:11:49;103004.47;;;3.86;76.96
76166;BME280;65085;46.718;20.136;2024-01-30T16:14:53;103001.22;;;3.69;78.40
76166;BME280;65085;46.718;20.136;2024-01-30T16:17:57;102996.09;;;3.57;78.65
76166;BME280;65085;46.718;20.136;2024-01-30T16:21:01;102999.84;;;3.46;80.24